Time;durP1;ratioP1;P1;durP2;ratioP2;P2;SDS_P1;SDS_P2;PMS_P1;PMS_P2;Temp;Humidity;BMP_temperature;BMP_pressure;BME280_temperature;BME280_humidity;BME280_pressure;Samples;Min_cycle;Max_cycle;Signal;HPM_P1;HPM_P2
2022/09/15 00:02:09;;;;;;;8.78;6.90;;;;;;;;;;1784954;80;21027;-65
2022/09/15 00:04:35;;;;;;;10.68;8.30;;;;;;;;;;1781591;80;20989;-65
2022/09/15 00:07:01;;;;;;;11.40;8.43;;;;;;;;;;1775725;80;21054;-65
2022/09/15 00:09:28;;;;;;;9.68;7.78;;;;;;;;;;1768907;80;21563;-66
2022/09/15 00:11:54;;;;;;;7.87;7.05;;;;;;;;;;1791050;80;21039;-65
2022/09/15 00:14:20;;;;;;;9.40;7.83;;;;;;;;;;1790462;80;21000;-65
2022/09/15 00:16:46;;;;;;;11.03;7.78;;;;;;;;;;1782168;80;21042;-65
2022/09/15 00:19:12;;;;;;;11.00;7.47;;;;;;;;;;1782799;80;21067;-65
2022/09/15 00:21:39;;;;;;;10.70;7.67;;;;;;;;;;1781401;78;21008;-65
2022/09/15 00:24:05;;;;;;;10.32;8.25;;;;;;;;;;1774938;80;20984;-65
2022/09/15 00:26:31;;;;;;;13.38;7.92;;;;;;;;;;1782952;80;21858;-66
2022/09/15 00:28:59;;;;;;;9.78;7.65;;;;;;;;;;1779848;80;21039;-66
2022/09/15 00:31:26;;;;;;;10.05;7.22;;;;;;;;;;1777255;80;21495;-66
2022/09/15 00:33:53;;;;;;;11.33;7.95;;;;;;;;;;1771115;80;21055;-65
2022/09/15 00:36:20;;;;;;;12.65;7.80;;;;;;;;;;1776464;80;21079;-66
2022/09/15 00:38:46;;;;;;;9.68;7.35;;;;;;;;;;1778660;80;21083;-65
2022/09/15 00:41:13;;;;;;;10.80;7.78;;;;;;;;;;1779042;80;21051;-65
2022/09/15 00:43:59;;;;;;;12.60;7.67;;;;;;;;;;1781285;80;20995;-64
2022/09/15 00:46:33;;;;;;;11.50;7.03;;;;;;;;;;1782504;80;21098;-65
2022/09/15 00:49:08;;;;;;;10.90;7.95;;;;;;;;;;1778115;80;21063;-66
2022/09/15 00:51:37;;;;;;;11.10;8.23;;;;;;;;;;1780025;80;21126;-66
2022/09/15 00:54:04;;;;;;;16.50;8.23;;;;;;;;;;1782944;80;21572;-66
2022/09/15 00:56:30;;;;;;;10.28;8.15;;;;;;;;;;1779731;80;21019;-66
2022/09/15 00:58:57;;;;;;;11.03;9.05;;;;;;;;;;1781113;80;21043;-66
2022/09/15 01:04:19;;;;;;;11.38;8.20;;;;;;;;;;1754600;78;21237;-61
2022/09/15 01:06:50;;;;;;;12.70;8.63;;;;;;;;;;1741388;81;20990;-62
2022/09/15 01:09:21;;;;;;;11.55;8.60;;;;;;;;;;1755991;79;21049;-61
2022/09/15 01:11:47;;;;;;;11.05;8.65;;;;;;;;;;1713469;81;21007;-62
2022/09/15 01:14:13;;;;;;;11.90;8.38;;;;;;;;;;1742629;81;20988;-63
2022/09/15 01:16:50;;;;;;;10.60;8.10;;;;;;;;;;1755897;81;21041;-62
2022/09/15 01:19:36;;;;;;;11.50;8.35;;;;;;;;;;1751929;80;21116;-62
2022/09/15 01:22:12;;;;;;;11.28;8.58;;;;;;;;;;1749876;80;21058;-61
2022/09/15 01:24:43;;;;;;;9.80;7.90;;;;;;;;;;1745571;81;21046;-63
2022/09/15 01:27:14;;;;;;;9.73;7.90;;;;;;;;;;1745577;80;21067;-63
2022/09/15 01:29:43;;;;;;;11.10;8.18;;;;;;;;;;1745718;81;21077;-61
2022/09/15 01:35:03;;;;;;;10.53;7.83;;;;;;;;;;1693884;81;21080;-62
2022/09/15 01:37:30;;;;;;;11.25;7.85;;;;;;;;;;1740594;80;21555;-62
2022/09/15 01:39:56;;;;;;;10.05;7.83;;;;;;;;;;1729893;80;21002;-62
2022/09/15 01:42:22;;;;;;;9.65;7.75;;;;;;;;;;1764102;79;21041;-63
2022/09/15 01:44:50;;;;;;;11.90;7.60;;;;;;;;;;1753377;81;21623;-61
2022/09/15 01:47:17;;;;;;;10.45;8.28;;;;;;;;;;1758828;80;21027;-62
2022/09/15 01:49:45;;;;;;;9.80;7.30;;;;;;;;;;1760615;80;21487;-62
2022/09/15 01:52:13;;;;;;;11.20;7.50;;;;;;;;;;1768626;79;21064;-62
2022/09/15 01:54:43;;;;;;;9.50;7.33;;;;;;;;;;1767479;79;20978;-62
2022/09/15 01:57:08;;;;;;;12.63;7.92;;;;;;;;;;1770568;79;21049;-62
2022/09/15 01:59:35;;;;;;;11.28;7.87;;;;;;;;;;1780784;79;21059;-62
2022/09/15 02:02:04;;;;;;;11.63;7.58;;;;;;;;;;1754519;80;22295;-62
2022/09/15 02:04:37;;;;;;;11.73;7.80;;;;;;;;;;1768480;80;21614;-62
2022/09/15 02:07:20;;;;;;;9.20;6.62;;;;;;;;;;1780712;79;21085;-62
2022/09/15 02:09:50;;;;;;;13.58;7.80;;;;;;;;;;1746910;81;21091;-61
2022/09/15 02:12:18;;;;;;;9.70;7.08;;;;;;;;;;1770643;79;21035;-62
2022/09/15 02:14:47;;;;;;;10.00;7.12;;;;;;;;;;1750471;81;20999;-63
2022/09/15 02:17:14;;;;;;;10.50;7.78;;;;;;;;;;1752967;79;21059;-62
2022/09/15 02:19:41;;;;;;;12.85;7.62;;;;;;;;;;1758433;79;21066;-62
2022/09/15 02:22:16;;;;;;;11.15;7.97;;;;;;;;;;1756719;79;21065;-63
2022/09/15 02:24:44;;;;;;;9.18;7.45;;;;;;;;;;1757162;80;21052;-62
2022/09/15 02:27:12;;;;;;;10.05;7.50;;;;;;;;;;1771581;79;21075;-62
2022/09/15 02:29:38;;;;;;;10.82;7.50;;;;;;;;;;1773140;79;20996;-62
2022/09/15 02:32:05;;;;;;;9.08;7.40;;;;;;;;;;1771265;79;21036;-62
2022/09/15 02:34:39;;;;;;;9.93;7.22;;;;;;;;;;1719885;80;21075;-62
2022/09/15 02:37:05;;;;;;;8.55;6.72;;;;;;;;;;1760278;79;21061;-62
2022/09/15 02:39:32;;;;;;;9.33;6.87;;;;;;;;;;1761999;79;21083;-63
2022/09/15 02:42:01;;;;;;;11.35;7.42;;;;;;;;;;1759968;80;21078;-62
2022/09/15 02:44:29;;;;;;;9.50;7.15;;;;;;;;;;1768169;79;21569;-62
2022/09/15 02:46:56;;;;;;;9.63;7.70;;;;;;;;;;1763301;79;21037;-62
2022/09/15 02:49:22;;;;;;;10.18;7.67;;;;;;;;;;1757331;79;21081;-61
2022/09/15 02:51:48;;;;;;;9.73;7.97;;;;;;;;;;1768998;79;21120;-63
2022/09/15 02:54:14;;;;;;;11.48;7.65;;;;;;;;;;1763807;79;21603;-63
2022/09/15 02:56:41;;;;;;;11.70;7.83;;;;;;;;;;1759755;79;21071;-63
2022/09/15 02:59:07;;;;;;;9.60;7.12;;;;;;;;;;1765236;79;21091;-63
2022/09/15 03:01:33;;;;;;;9.95;7.33;;;;;;;;;;1769748;79;21887;-63
2022/09/15 03:04:00;;;;;;;10.18;7.40;;;;;;;;;;1730161;81;21691;-63
2022/09/15 03:06:29;;;;;;;10.75;7.83;;;;;;;;;;1766753;79;21054;-63
2022/09/15 03:08:57;;;;;;;9.43;7.58;;;;;;;;;;1764876;79;21085;-63
2022/09/15 03:11:24;;;;;;;8.95;7.20;;;;;;;;;;1760976;80;21012;-63
2022/09/15 03:13:54;;;;;;;9.75;7.58;;;;;;;;;;1754723;79;21000;-63
2022/09/15 03:16:20;;;;;;;9.38;7.12;;;;;;;;;;1749757;79;21055;-62
2022/09/15 03:18:47;;;;;;;9.45;7.53;;;;;;;;;;1759772;80;21079;-62
2022/09/15 03:21:13;;;;;;;9.95;7.20;;;;;;;;;;1756253;80;21091;-63
2022/09/15 03:23:40;;;;;;;9.53;7.33;;;;;;;;;;1755058;80;22182;-63
2022/09/15 03:26:07;;;;;;;11.85;7.42;;;;;;;;;;1763667;79;21008;-63
2022/09/15 03:28:34;;;;;;;10.48;7.97;;;;;;;;;;1753998;79;21530;-63
2022/09/15 03:31:00;;;;;;;10.08;7.55;;;;;;;;;;1760450;79;21043;-63
2022/09/15 03:33:26;;;;;;;9.28;7.25;;;;;;;;;;1758069;80;21087;-63
2022/09/15 03:35:52;;;;;;;10.58;7.60;;;;;;;;;;1798692;78;21034;-63
2022/09/15 03:38:18;;;;;;;9.40;7.15;;;;;;;;;;1803073;78;21530;-63
2022/09/15 03:40:46;;;;;;;10.40;7.08;;;;;;;;;;1795992;78;22180;-63
2022/09/15 03:43:13;;;;;;;10.48;7.00;;;;;;;;;;1797138;78;21859;-62
2022/09/15 03:45:39;;;;;;;9.35;6.85;;;;;;;;;;1790959;78;21087;-62
2022/09/15 03:48:05;;;;;;;9.75;7.55;;;;;;;;;;1802756;78;21115;-62
2022/09/15 03:50:32;;;;;;;11.45;8.20;;;;;;;;;;1791019;78;21065;-62
2022/09/15 03:52:59;;;;;;;11.18;7.55;;;;;;;;;;1800963;78;22069;-62
2022/09/15 03:55:26;;;;;;;10.13;6.97;;;;;;;;;;1784636;78;21064;-63
2022/09/15 03:57:52;;;;;;;10.60;7.00;;;;;;;;;;1797652;78;21039;-63
2022/09/15 04:00:18;;;;;;;10.55;7.25;;;;;;;;;;1794074;78;21005;-63
2022/09/15 04:02:44;;;;;;;9.30;6.70;;;;;;;;;;1801476;78;21056;-63
2022/09/15 04:05:12;;;;;;;8.93;7.30;;;;;;;;;;1801124;78;20996;-62
2022/09/15 04:07:40;;;;;;;8.08;6.85;;;;;;;;;;1809367;78;20996;-63
2022/09/15 04:10:08;;;;;;;10.75;6.53;;;;;;;;;;1804608;77;20985;-63
2022/09/15 04:12:35;;;;;;;8.53;6.55;;;;;;;;;;1795015;78;21570;-64
2022/09/15 04:15:01;;;;;;;7.78;5.97;;;;;;;;;;1787984;78;22469;-63
2022/09/15 04:17:27;;;;;;;8.28;6.87;;;;;;;;;;1796261;78;21075;-63
2022/09/15 04:19:53;;;;;;;8.98;7.10;;;;;;;;;;1804435;77;20996;-62
2022/09/15 04:22:20;;;;;;;10.38;7.80;;;;;;;;;;1799197;78;21076;-62
2022/09/15 04:24:49;;;;;;;11.18;6.80;;;;;;;;;;1770631;79;21076;-62
2022/09/15 04:27:16;;;;;;;10.08;7.50;;;;;;;;;;1775797;79;21534;-62
2022/09/15 04:29:42;;;;;;;9.40;7.37;;;;;;;;;;1767665;79;20992;-63
2022/09/15 04:32:08;;;;;;;9.20;6.62;;;;;;;;;;1763629;79;20984;-62
2022/09/15 04:34:34;;;;;;;8.73;7.40;;;;;;;;;;1767914;79;21020;-62
2022/09/15 04:37:01;;;;;;;9.13;7.42;;;;;;;;;;1735645;81;21061;-62
2022/09/15 04:39:27;;;;;;;10.00;7.55;;;;;;;;;;1731654;81;21057;-62
2022/09/15 04:41:53;;;;;;;8.10;7.20;;;;;;;;;;1757421;79;21018;-62
2022/09/15 04:44:20;;;;;;;9.53;6.83;;;;;;;;;;1751457;81;21075;-64
2022/09/15 04:46:47;;;;;;;10.48;7.42;;;;;;;;;;1758255;79;20987;-63
2022/09/15 04:49:13;;;;;;;9.33;7.20;;;;;;;;;;1741551;81;20999;-63
2022/09/15 04:51:39;;;;;;;9.38;7.40;;;;;;;;;;1773866;79;21608;-63
2022/09/15 04:54:05;;;;;;;11.10;8.18;;;;;;;;;;1772863;79;21130;-63
2022/09/15 04:56:31;;;;;;;10.05;7.40;;;;;;;;;;1766004;79;21101;-63
2022/09/15 04:58:58;;;;;;;9.65;6.80;;;;;;;;;;1753429;80;21093;-63
2022/09/15 05:01:25;;;;;;;10.82;6.85;;;;;;;;;;1764685;81;21001;-63
2022/09/15 05:03:52;;;;;;;9.95;7.30;;;;;;;;;;1768937;79;21035;-63
2022/09/15 05:06:19;;;;;;;9.50;7.65;;;;;;;;;;1760105;78;22036;-62
2022/09/15 05:08:46;;;;;;;9.18;7.70;;;;;;;;;;1756752;79;21068;-62
2022/09/15 05:11:12;;;;;;;8.25;6.67;;;;;;;;;;1771263;79;21038;-63
2022/09/15 05:13:40;;;;;;;9.25;6.67;;;;;;;;;;1764368;81;21049;-63
2022/09/15 05:16:07;;;;;;;9.73;7.00;;;;;;;;;;1761841;78;21035;-62
2022/09/15 05:18:34;;;;;;;9.83;7.15;;;;;;;;;;1761980;78;21587;-62
2022/09/15 05:21:00;;;;;;;9.98;7.22;;;;;;;;;;1760799;79;21022;-63
2022/09/15 05:23:26;;;;;;;11.15;7.33;;;;;;;;;;1764250;79;21073;-62
2022/09/15 05:25:56;;;;;;;9.13;7.00;;;;;;;;;;1757997;81;22053;-63
2022/09/15 05:28:23;;;;;;;8.08;6.33;;;;;;;;;;1756534;79;21048;-62
2022/09/15 05:30:51;;;;;;;8.55;6.97;;;;;;;;;;1764494;79;21089;-62
2022/09/15 05:33:18;;;;;;;12.70;7.22;;;;;;;;;;1757482;79;21019;-62
2022/09/15 05:35:57;;;;;;;10.90;6.35;;;;;;;;;;1759793;79;22250;-62
2022/09/15 05:38:23;;;;;;;11.38;7.25;;;;;;;;;;1751100;80;21032;-62
2022/09/15 05:40:50;;;;;;;8.90;6.95;;;;;;;;;;1746903;81;21074;-62
2022/09/15 05:43:16;;;;;;;8.70;6.33;;;;;;;;;;1755912;81;21003;-63
2022/09/15 05:45:43;;;;;;;9.00;6.62;;;;;;;;;;1766830;81;21546;-63
2022/09/15 05:48:09;;;;;;;10.35;6.97;;;;;;;;;;1760189;80;21056;-63
2022/09/15 05:50:36;;;;;;;8.85;6.95;;;;;;;;;;1756637;80;21020;-63
2022/09/15 05:53:02;;;;;;;10.28;6.92;;;;;;;;;;1761914;80;21029;-62
2022/09/15 05:55:28;;;;;;;9.98;7.05;;;;;;;;;;1759926;80;21052;-63
2022/09/15 05:57:57;;;;;;;8.88;6.50;;;;;;;;;;1765602;80;21008;-62
2022/09/15 06:00:23;;;;;;;10.95;6.42;;;;;;;;;;1740825;80;21071;-62
2022/09/15 06:02:50;;;;;;;11.88;6.83;;;;;;;;;;1756490;81;21031;-62
2022/09/15 06:05:16;;;;;;;8.60;6.37;;;;;;;;;;1753286;80;21082;-63
2022/09/15 06:07:42;;;;;;;8.93;7.05;;;;;;;;;;1749455;79;21048;-62
2022/09/15 06:10:09;;;;;;;9.18;7.03;;;;;;;;;;1760370;80;21105;-61
2022/09/15 06:12:35;;;;;;;9.15;6.70;;;;;;;;;;1743970;80;21524;-61
2022/09/15 06:15:01;;;;;;;9.98;6.80;;;;;;;;;;1819315;78;21496;-62
2022/09/15 06:17:29;;;;;;;8.85;6.28;;;;;;;;;;1794881;78;21094;-62
2022/09/15 06:19:56;;;;;;;9.45;6.85;;;;;;;;;;1801515;78;21070;-62
2022/09/15 06:22:23;;;;;;;9.85;7.08;;;;;;;;;;1791936;78;21022;-62
2022/09/15 06:24:49;;;;;;;7.97;6.72;;;;;;;;;;1796901;78;21116;-63
2022/09/15 06:27:15;;;;;;;9.05;6.62;;;;;;;;;;1817348;78;21570;-62
2022/09/15 06:29:41;;;;;;;12.45;7.28;;;;;;;;;;1794606;78;21029;-62
2022/09/15 06:32:08;;;;;;;10.23;7.33;;;;;;;;;;1796160;78;21008;-61
2022/09/15 06:34:33;;;;;;;10.10;6.78;;;;;;;;;;1796322;78;21091;-63
2022/09/15 06:37:00;;;;;;;8.18;6.62;;;;;;;;;;1761580;79;21519;-63
2022/09/15 06:39:26;;;;;;;9.48;6.47;;;;;;;;;;1734845;81;21017;-62
2022/09/15 06:41:52;;;;;;;8.73;7.00;;;;;;;;;;1729021;81;21060;-62
2022/09/15 06:44:18;;;;;;;8.78;6.83;;;;;;;;;;1762076;79;21046;-62
2022/09/15 06:46:45;;;;;;;8.68;6.85;;;;;;;;;;1753034;79;21059;-62
2022/09/15 06:49:11;;;;;;;8.25;6.58;;;;;;;;;;1767061;79;21641;-63
2022/09/15 06:51:38;;;;;;;9.40;7.08;;;;;;;;;;1760689;80;21053;-63
2022/09/15 06:54:04;;;;;;;9.13;7.15;;;;;;;;;;1763102;81;21041;-63
2022/09/15 06:56:30;;;;;;;11.20;7.67;;;;;;;;;;1771320;79;21103;-63
2022/09/15 06:58:57;;;;;;;10.10;6.87;;;;;;;;;;1765644;79;21055;-63
2022/09/15 07:01:28;;;;;;;9.18;6.47;;;;;;;;;;1754560;79;21081;-63
2022/09/15 07:03:55;;;;;;;10.68;6.75;;;;;;;;;;1753734;80;21043;-62
2022/09/15 07:06:21;;;;;;;11.00;6.90;;;;;;;;;;1753581;80;21054;-61
2022/09/15 07:08:48;;;;;;;13.25;8.05;;;;;;;;;;1736864;79;21093;-62
2022/09/15 07:11:15;;;;;;;9.78;7.47;;;;;;;;;;1769356;79;21032;-62
2022/09/15 07:13:41;;;;;;;12.47;8.50;;;;;;;;;;1766913;79;21015;-62
2022/09/15 07:16:09;;;;;;;13.43;7.20;;;;;;;;;;1764333;79;21008;-63
2022/09/15 07:18:35;;;;;;;11.18;7.15;;;;;;;;;;1738501;81;21050;-63
2022/09/15 07:21:03;;;;;;;9.73;7.33;;;;;;;;;;1756007;79;21032;-62
2022/09/15 07:23:29;;;;;;;10.23;6.72;;;;;;;;;;1767149;79;21075;-62
2022/09/15 07:26:06;;;;;;;10.38;6.72;;;;;;;;;;1775240;79;21570;-61
2022/09/15 07:28:34;;;;;;;9.23;6.62;;;;;;;;;;1749287;80;22211;-62
2022/09/15 07:31:00;;;;;;;7.95;6.28;;;;;;;;;;1749174;80;21059;-63
2022/09/15 07:33:27;;;;;;;9.38;6.53;;;;;;;;;;1756941;81;21084;-63
2022/09/15 07:35:53;;;;;;;10.80;6.97;;;;;;;;;;1767378;79;20965;-62
2022/09/15 07:38:20;;;;;;;9.35;6.65;;;;;;;;;;1747051;81;21027;-63
2022/09/15 07:40:47;;;;;;;8.88;6.62;;;;;;;;;;1763526;81;21112;-63
2022/09/15 07:43:14;;;;;;;11.45;7.80;;;;;;;;;;1761285;80;21101;-63
2022/09/15 07:45:40;;;;;;;12.93;7.58;;;;;;;;;;1749652;80;21459;-63
2022/09/15 07:48:06;;;;;;;11.90;7.35;;;;;;;;;;1746362;81;21064;-63
2022/09/15 07:50:32;;;;;;;13.38;8.63;;;;;;;;;;1746992;81;21071;-62
2022/09/15 07:52:59;;;;;;;13.83;8.90;;;;;;;;;;1749360;80;21016;-63
2022/09/15 07:55:25;;;;;;;12.68;8.45;;;;;;;;;;1757068;81;21507;-62
2022/09/15 07:57:56;;;;;;;11.70;8.55;;;;;;;;;;1754326;79;21007;-62
2022/09/15 08:00:22;;;;;;;11.28;6.97;;;;;;;;;;1756342;80;21618;-62
2022/09/15 08:02:48;;;;;;;9.40;7.17;;;;;;;;;;1771818;79;21053;-62
2022/09/15 08:05:15;;;;;;;12.98;7.47;;;;;;;;;;1731928;81;21047;-62
2022/09/15 08:07:41;;;;;;;9.08;6.75;;;;;;;;;;1758245;80;21172;-62
2022/09/15 08:10:08;;;;;;;11.12;6.87;;;;;;;;;;1758896;79;21109;-62
2022/09/15 08:12:35;;;;;;;8.20;6.45;;;;;;;;;;1759740;81;21611;-64
2022/09/15 08:15:01;;;;;;;9.85;7.30;;;;;;;;;;1758820;80;21093;-63
2022/09/15 08:17:27;;;;;;;12.68;6.90;;;;;;;;;;1761981;79;20996;-64
2022/09/15 08:19:54;;;;;;;8.85;6.47;;;;;;;;;;1764578;79;21043;-63
2022/09/15 08:22:19;;;;;;;7.37;6.50;;;;;;;;;;1766458;79;21035;-64
2022/09/15 08:24:45;;;;;;;8.63;6.12;;;;;;;;;;1763387;79;21040;-63
2022/09/15 08:27:11;;;;;;;8.98;6.87;;;;;;;;;;1768127;80;21087;-63
2022/09/15 08:29:38;;;;;;;7.97;6.75;;;;;;;;;;1761783;81;21495;-63
2022/09/15 08:32:04;;;;;;;9.93;7.03;;;;;;;;;;1741120;81;21604;-63
2022/09/15 08:34:29;;;;;;;9.55;6.90;;;;;;;;;;1771968;79;20996;-63
2022/09/15 08:36:55;;;;;;;10.35;7.40;;;;;;;;;;1773511;79;21099;-63
2022/09/15 08:39:22;;;;;;;10.82;7.60;;;;;;;;;;1742229;79;21594;-64
2022/09/15 08:41:48;;;;;;;9.23;6.92;;;;;;;;;;1763367;79;21032;-64
2022/09/15 08:44:25;;;;;;;8.10;6.40;;;;;;;;;;1759004;80;21048;-63
2022/09/15 08:46:56;;;;;;;9.78;6.53;;;;;;;;;;1751625;79;21087;-62
2022/09/15 08:49:24;;;;;;;8.00;6.75;;;;;;;;;;1774749;79;21077;-62
2022/09/15 08:51:51;;;;;;;10.50;6.78;;;;;;;;;;1735863;80;21060;-62
2022/09/15 08:54:24;;;;;;;9.50;6.80;;;;;;;;;;1756002;79;21051;-62
2022/09/15 08:56:50;;;;;;;10.32;6.87;;;;;;;;;;1757974;79;21072;-63
2022/09/15 08:59:17;;;;;;;8.98;6.22;;;;;;;;;;1766728;79;21064;-64
2022/09/15 09:02:02;;;;;;;8.18;6.05;;;;;;;;;;1773452;79;21071;-62
2022/09/15 09:04:31;;;;;;;7.30;6.15;;;;;;;;;;1767487;79;21027;-62
2022/09/15 09:07:16;;;;;;;8.20;6.50;;;;;;;;;;1774046;79;20991;-62
2022/09/15 09:09:47;;;;;;;8.58;6.17;;;;;;;;;;1754993;80;21075;-62
2022/09/15 09:12:15;;;;;;;10.58;7.00;;;;;;;;;;1743304;80;21091;-62
2022/09/15 09:14:49;;;;;;;7.97;6.25;;;;;;;;;;1779401;79;21030;-61
2022/09/15 09:17:23;;;;;;;8.15;5.92;;;;;;;;;;1779327;79;21083;-63
2022/09/15 09:19:57;;;;;;;8.43;5.92;;;;;;;;;;1755131;79;21040;-63
2022/09/15 09:22:24;;;;;;;8.75;6.42;;;;;;;;;;1756662;81;21064;-62
2022/09/15 09:24:51;;;;;;;8.13;6.60;;;;;;;;;;1757780;78;22074;-62
2022/09/15 09:27:19;;;;;;;8.45;6.00;;;;;;;;;;1756105;81;21075;-62
2022/09/15 09:29:49;;;;;;;8.23;6.22;;;;;;;;;;1762958;79;21551;-62
2022/09/15 09:32:17;;;;;;;6.55;5.20;;;;;;;;;;1764091;79;21044;-63
2022/09/15 09:34:48;;;;;;;8.43;5.95;;;;;;;;;;1760267;80;21001;-62
2022/09/15 09:37:14;;;;;;;7.92;5.72;;;;;;;;;;1761841;81;21051;-62
2022/09/15 09:39:41;;;;;;;6.30;5.28;;;;;;;;;;1758844;79;21193;-63
2022/09/15 09:42:14;;;;;;;7.87;6.50;;;;;;;;;;1764284;81;21020;-63
2022/09/15 09:44:40;;;;;;;6.85;5.70;;;;;;;;;;1739847;80;21000;-63
2022/09/15 09:47:06;;;;;;;9.73;5.42;;;;;;;;;;1765261;79;22403;-63
2022/09/15 09:49:33;;;;;;;6.80;5.78;;;;;;;;;;1794578;78;21051;-63
2022/09/15 09:52:02;;;;;;;7.17;5.53;;;;;;;;;;1788786;78;20997;-63
2022/09/15 09:54:29;;;;;;;7.35;5.85;;;;;;;;;;1798422;78;21523;-63
2022/09/15 09:56:58;;;;;;;7.08;5.12;;;;;;;;;;1794522;78;21045;-63
2022/09/15 09:59:40;;;;;;;7.20;5.40;;;;;;;;;;1790586;78;21022;-61
2022/09/15 10:02:19;;;;;;;6.28;4.87;;;;;;;;;;1793780;78;20975;-63
2022/09/15 10:04:53;;;;;;;6.03;4.40;;;;;;;;;;1798183;78;21008;-63
2022/09/15 10:07:21;;;;;;;8.38;4.53;;;;;;;;;;1805412;78;21072;-61
2022/09/15 10:09:49;;;;;;;5.42;4.28;;;;;;;;;;1794045;78;21055;-63
2022/09/15 10:12:21;;;;;;;6.22;4.50;;;;;;;;;;1805108;78;21012;-63
2022/09/15 10:14:52;;;;;;;5.58;4.28;;;;;;;;;;1816721;78;21515;-62
2022/09/15 10:17:20;;;;;;;6.00;4.55;;;;;;;;;;1793514;78;20988;-62
2022/09/15 10:19:53;;;;;;;10.75;6.80;;;;;;;;;;1792707;78;22041;-62
2022/09/15 10:22:29;;;;;;;8.65;5.50;;;;;;;;;;1790467;78;21040;-63
2022/09/15 10:24:56;;;;;;;8.98;6.75;;;;;;;;;;1782269;78;21075;-62
2022/09/15 10:27:27;;;;;;;5.50;4.62;;;;;;;;;;1792856;78;21017;-61
2022/09/15 10:29:53;;;;;;;10.70;4.60;;;;;;;;;;1791204;78;21066;-62
2022/09/15 10:32:26;;;;;;;5.47;4.20;;;;;;;;;;1815929;78;21607;-62
2022/09/15 10:34:53;;;;;;;;;;;;;;;;;;1793451;78;21511;-62
2022/09/15 10:37:21;;;;;;;6.12;4.22;;;;;;;;;;1789458;78;20146;-62
2022/09/15 10:39:50;;;;;;;6.35;4.30;;;;;;;;;;1794781;78;20984;-62
2022/09/15 10:42:27;;;;;;;6.22;4.15;;;;;;;;;;1797884;78;21609;-63
2022/09/15 10:44:58;;;;;;;6.15;4.70;;;;;;;;;;1800852;78;21048;-62
2022/09/15 10:47:29;;;;;;;6.00;4.30;;;;;;;;;;1801080;77;21047;-63
2022/09/15 10:50:06;;;;;;;6.78;3.60;;;;;;;;;;1763683;78;21063;-62
2022/09/15 10:52:34;;;;;;;6.50;4.40;;;;;;;;;;1797353;78;21025;-63
2022/09/15 10:55:19;;;;;;;6.08;4.03;;;;;;;;;;1810032;78;20993;-63
2022/09/15 10:57:59;;;;;;;5.85;4.20;;;;;;;;;;1798234;78;21590;-63
2022/09/15 11:00:25;;;;;;;5.62;4.47;;;;;;;;;;1796785;78;21223;-63
2022/09/15 11:03:11;;;;;;;4.85;3.95;;;;;;;;;;1805387;78;21032;-63
2022/09/15 11:05:39;;;;;;;5.97;4.12;;;;;;;;;;1762520;79;21067;-61
2022/09/15 11:08:19;;;;;;;6.15;4.37;;;;;;;;;;1748235;79;21491;-62
2022/09/15 11:10:49;;;;;;;7.80;4.28;;;;;;;;;;1761156;79;21015;-63
2022/09/15 11:13:23;;;;;;;7.42;4.33;;;;;;;;;;1739907;80;21038;-64
2022/09/15 11:15:51;;;;;;;5.45;4.35;;;;;;;;;;1759580;79;21591;-63
2022/09/15 11:18:28;;;;;;;5.05;4.08;;;;;;;;;;1766720;79;21602;-64
2022/09/15 11:22:53;;;;;;;7.30;4.30;;;;;;;;;;1803946;79;22944;-62
2022/09/15 11:25:21;;;;;;;6.53;4.10;;;;;;;;;;1761265;81;20976;-64
2022/09/15 11:27:49;;;;;;;5.67;4.30;;;;;;;;;;1761146;81;21056;-63
2022/09/15 11:30:17;;;;;;;7.95;4.42;;;;;;;;;;1763548;80;21590;-63
2022/09/15 11:32:45;;;;;;;6.42;4.28;;;;;;;;;;1758641;80;21505;-63
2022/09/15 11:35:16;;;;;;;6.28;3.90;;;;;;;;;;1760938;81;21083;-63
2022/09/15 11:37:43;;;;;;;4.90;3.47;;;;;;;;;;1755491;80;21095;-63
2022/09/15 11:40:14;;;;;;;5.80;3.77;;;;;;;;;;1760519;80;21083;-64
2022/09/15 11:42:45;;;;;;;5.03;3.72;;;;;;;;;;1765304;80;20999;-63
2022/09/15 11:45:16;;;;;;;5.50;3.77;;;;;;;;;;1759497;80;21050;-64
2022/09/15 11:47:43;;;;;;;5.40;4.30;;;;;;;;;;1758985;80;21018;-63
2022/09/15 11:50:19;;;;;;;6.15;4.10;;;;;;;;;;1761203;81;21573;-64
2022/09/15 11:52:59;;;;;;;4.03;3.47;;;;;;;;;;1757873;81;21626;-63
2022/09/15 11:55:28;;;;;;;6.75;3.98;;;;;;;;;;1758166;81;21021;-63
2022/09/15 11:58:02;;;;;;;5.75;4.40;;;;;;;;;;1761118;81;21015;-63
2022/09/15 12:00:29;;;;;;;6.65;4.03;;;;;;;;;;1737551;82;21125;-62
2022/09/15 12:03:06;;;;;;;6.58;3.87;;;;;;;;;;1734709;82;21013;-62
2022/09/15 12:05:34;;;;;;;4.75;4.00;;;;;;;;;;1738206;82;21087;-63
2022/09/15 12:08:03;;;;;;;7.95;5.50;;;;;;;;;;1735425;82;21013;-63
2022/09/15 12:10:30;;;;;;;6.03;4.53;;;;;;;;;;1733715;82;21044;-63
2022/09/15 12:12:57;;;;;;;5.35;4.03;;;;;;;;;;1738736;82;21064;-62
2022/09/15 12:15:26;;;;;;;5.83;4.58;;;;;;;;;;1736576;82;21479;-63
2022/09/15 12:17:53;;;;;;;5.40;4.87;;;;;;;;;;1737634;82;21534;-62
2022/09/15 12:20:30;;;;;;;5.35;4.58;;;;;;;;;;1739581;82;21079;-63
2022/09/15 12:23:10;;;;;;;5.00;3.65;;;;;;;;;;1734874;81;21056;-63
2022/09/15 12:25:42;;;;;;;7.05;4.45;;;;;;;;;;1744944;81;21500;-63
2022/09/15 12:28:23;;;;;;;4.80;4.30;;;;;;;;;;1739296;82;21025;-63
2022/09/15 12:30:51;;;;;;;6.37;4.15;;;;;;;;;;1735857;82;21044;-63
2022/09/15 12:33:36;;;;;;;5.87;3.87;;;;;;;;;;1727614;82;21082;-63
2022/09/15 12:36:20;;;;;;;5.47;3.72;;;;;;;;;;1740101;82;21052;-63
2022/09/15 12:38:47;;;;;;;5.42;3.72;;;;;;;;;;1739377;82;21045;-63
2022/09/15 12:41:13;;;;;;;5.35;3.87;;;;;;;;;;1739360;81;21587;-63
2022/09/15 12:43:39;;;;;;;4.97;4.05;;;;;;;;;;1737025;81;21036;-63
2022/09/15 12:46:07;;;;;;;6.28;3.90;;;;;;;;;;1739081;82;21009;-62
2022/09/15 12:48:35;;;;;;;4.60;3.83;;;;;;;;;;1738826;82;21028;-63
2022/09/15 12:51:04;;;;;;;4.65;3.50;;;;;;;;;;1736279;82;21037;-63
2022/09/15 12:53:31;;;;;;;4.35;3.47;;;;;;;;;;1738396;81;21028;-63
2022/09/15 12:55:58;;;;;;;5.12;3.90;;;;;;;;;;1739228;82;21020;-63
2022/09/15 12:58:27;;;;;;;5.87;3.72;;;;;;;;;;1736212;82;21087;-63
2022/09/15 13:00:55;;;;;;;5.17;4.00;;;;;;;;;;1738741;82;21056;-63
2022/09/15 13:03:29;;;;;;;4.03;3.30;;;;;;;;;;1732808;82;21076;-63
2022/09/15 13:06:14;;;;;;;5.70;4.22;;;;;;;;;;1710330;82;21044;-63
2022/09/15 13:08:50;;;;;;;7.33;4.70;;;;;;;;;;1744391;82;21006;-63
2022/09/15 13:11:36;;;;;;;6.50;4.80;;;;;;;;;;1738381;82;21017;-63
2022/09/15 13:14:07;;;;;;;6.40;5.12;;;;;;;;;;1686184;85;21492;-62
2022/09/15 13:16:42;;;;;;;7.35;5.33;;;;;;;;;;1731115;82;21063;-63
2022/09/15 13:19:29;;;;;;;6.30;4.83;;;;;;;;;;1740090;82;21087;-63
2022/09/15 13:22:12;;;;;;;8.05;5.65;;;;;;;;;;1735305;81;21075;-63
2022/09/15 13:24:41;;;;;;;8.03;5.55;;;;;;;;;;1739234;82;21053;-63
2022/09/15 13:27:07;;;;;;;8.40;5.85;;;;;;;;;;1737790;82;21485;-63
2022/09/15 13:29:35;;;;;;;9.10;6.30;;;;;;;;;;1737452;82;21032;-63
2022/09/15 13:32:04;;;;;;;7.35;5.60;;;;;;;;;;1739688;82;21157;-63
2022/09/15 13:34:38;;;;;;;7.28;5.42;;;;;;;;;;1735446;82;21611;-63
2022/09/15 13:37:11;;;;;;;7.22;5.40;;;;;;;;;;1740884;82;21007;-63
2022/09/15 13:39:58;;;;;;;7.40;5.00;;;;;;;;;;1695569;82;21005;-63
2022/09/15 13:42:26;;;;;;;7.85;4.83;;;;;;;;;;1733062;82;21056;-63
2022/09/15 13:44:57;;;;;;;7.37;5.12;;;;;;;;;;1733717;81;21009;-63
2022/09/15 13:47:29;;;;;;;7.22;4.97;;;;;;;;;;1736688;82;21099;-63
2022/09/15 13:49:59;;;;;;;7.75;5.53;;;;;;;;;;1736746;81;21040;-63
2022/09/15 13:52:28;;;;;;;7.30;5.62;;;;;;;;;;1736630;81;21012;-63
2022/09/15 13:55:12;;;;;;;6.08;5.22;;;;;;;;;;1736269;82;21013;-63
2022/09/15 13:57:43;;;;;;;6.87;4.67;;;;;;;;;;1739814;82;21033;-62
2022/09/15 14:00:14;;;;;;;6.65;5.00;;;;;;;;;;1737912;82;21091;-63
2022/09/15 14:02:44;;;;;;;6.15;5.00;;;;;;;;;;1736403;81;21519;-63
2022/09/15 14:05:10;;;;;;;6.15;4.85;;;;;;;;;;1741076;80;21060;-63
2022/09/15 14:07:36;;;;;;;9.78;7.22;;;;;;;;;;1735885;81;21322;-63
2022/09/15 14:10:05;;;;;;;9.83;6.97;;;;;;;;;;1727643;81;21033;-63
2022/09/15 14:12:31;;;;;;;9.35;7.10;;;;;;;;;;1733747;82;21572;-63
2022/09/15 14:14:57;;;;;;;7.25;6.03;;;;;;;;;;1749059;82;21345;-63
2022/09/15 14:17:24;;;;;;;6.80;5.60;;;;;;;;;;1744746;82;21064;-63
2022/09/15 14:19:52;;;;;;;7.45;5.17;;;;;;;;;;1745071;81;21071;-63
2022/09/15 14:22:30;;;;;;;6.40;5.35;;;;;;;;;;1737633;81;21056;-63
2022/09/15 14:24:57;;;;;;;7.75;5.28;;;;;;;;;;1739351;81;21044;-64
2022/09/15 14:27:27;;;;;;;6.75;5.22;;;;;;;;;;1736008;82;21016;-63
2022/09/15 14:29:56;;;;;;;6.10;4.60;;;;;;;;;;1740968;81;21000;-63
2022/09/15 14:32:23;;;;;;;6.45;5.37;;;;;;;;;;1739654;82;21025;-63
2022/09/15 14:34:49;;;;;;;8.73;5.45;;;;;;;;;;1740402;81;21542;-62
2022/09/15 14:37:17;;;;;;;7.62;4.90;;;;;;;;;;1733178;82;21045;-63
2022/09/15 14:39:52;;;;;;;6.50;5.58;;;;;;;;;;1739331;82;21061;-63
2022/09/15 14:42:21;;;;;;;8.73;5.28;;;;;;;;;;1738798;82;21013;-63
2022/09/15 14:44:47;;;;;;;6.40;5.35;;;;;;;;;;1737297;82;21088;-62
2022/09/15 14:47:18;;;;;;;7.33;5.03;;;;;;;;;;1737962;82;21052;-63
2022/09/15 14:49:43;;;;;;;9.65;6.03;;;;;;;;;;1739953;82;21020;-63
2022/09/15 14:52:12;;;;;;;6.42;4.70;;;;;;;;;;1737427;82;21001;-62
2022/09/15 14:54:38;;;;;;;6.45;5.00;;;;;;;;;;1738612;82;21010;-62
2022/09/15 14:57:04;;;;;;;7.03;5.20;;;;;;;;;;1739549;82;21555;-63